Time;durP1;ratioP1;P1;durP2;ratioP2;P2;SDS_P1;SDS_P2;PMS_P1;PMS_P2;Temp;Humidity;BMP_temperature;BMP_pressure;BME280_temperature;BME280_humidity;BME280_pressure;Samples;Min_cycle;Max_cycle;Signal;HPM_P1;HPM_P2
2021/09/26 00:00:18;;;;;;;8.38;6.63;;;17.30;83.20;;;;;;4996519;28;20026;-87
2021/09/26 00:02:43;;;;;;;9.73;7.15;;;17.30;83.30;;;;;;5014239;28;20037;-89
2021/09/26 00:05:11;;;;;;;11.23;7.25;;;17.10;83.40;;;;;;5014008;28;20026;-88
2021/09/26 00:07:37;;;;;;;9.23;7.30;;;17.00;83.70;;;;;;4996644;28;20022;-88
2021/09/26 00:10:06;;;;;;;13.23;5.90;;;16.90;84.00;;;;;;4980889;28;20031;-88
2021/09/26 00:12:32;;;;;;;8.65;6.55;;;16.80;84.30;;;;;;4978941;28;20077;-89
2021/09/26 00:14:58;;;;;;;9.05;6.72;;;16.90;84.50;;;;;;5008165;28;20072;-88
2021/09/26 00:17:23;;;;;;;9.38;6.80;;;16.90;84.70;;;;;;5017287;28;20018;-88
2021/09/26 00:19:49;;;;;;;8.82;6.13;;;16.90;84.80;;;;;;4996724;28;20032;-88
2021/09/26 00:22:15;;;;;;;8.65;6.25;;;16.90;85.10;;;;;;4996546;28;20025;-87
2021/09/26 00:24:41;;;;;;;9.48;5.95;;;17.00;85.30;;;;;;4989234;28;20026;-88
2021/09/26 00:27:11;;;;;;;6.22;5.40;;;17.00;85.40;;;;;;5011249;28;20022;-88
2021/09/26 00:29:38;;;;;;;9.23;6.20;;;17.10;85.50;;;;;;5004401;28;20402;-88
2021/09/26 00:32:08;;;;;;;8.00;6.40;;;17.20;85.40;;;;;;5010113;28;20079;-89
2021/09/26 00:34:33;;;;;;;7.15;5.30;;;17.10;85.50;;;;;;5015307;28;20105;-88
2021/09/26 00:37:00;;;;;;;8.13;6.18;;;17.20;85.60;;;;;;5014793;28;20025;-88
2021/09/26 00:39:25;;;;;;;8.65;5.68;;;17.20;85.70;;;;;;5015497;28;20032;-89
2021/09/26 00:41:51;;;;;;;7.57;5.93;;;17.20;85.60;;;;;;5006934;28;20464;-89
2021/09/26 00:44:17;;;;;;;9.52;5.65;;;17.20;85.70;;;;;;5000076;28;20040;-89
2021/09/26 00:46:43;;;;;;;5.45;4.93;;;17.20;85.90;;;;;;4994829;28;20026;-88
2021/09/26 00:49:09;;;;;;;11.05;6.15;;;17.30;86.10;;;;;;4977036;28;20387;-89
2021/09/26 00:51:35;;;;;;;7.53;5.90;;;17.30;86.10;;;;;;4976606;28;20030;-88
2021/09/26 00:54:01;;;;;;;7.32;6.30;;;17.30;86.00;;;;;;4993743;28;20073;-88
2021/09/26 00:56:30;;;;;;;6.70;5.70;;;17.40;86.20;;;;;;4978518;28;20190;-89
2021/09/26 00:58:56;;;;;;;7.85;6.22;;;17.30;86.30;;;;;;4977714;28;20329;-88
2021/09/26 01:01:21;;;;;;;6.90;5.75;;;17.40;86.30;;;;;;4976977;28;20134;-89
2021/09/26 01:03:47;;;;;;;6.68;5.50;;;17.40;86.30;;;;;;4975965;28;20423;-88
2021/09/26 01:06:16;;;;;;;7.20;5.60;;;17.40;86.40;;;;;;4993372;28;20027;-88
2021/09/26 01:09:13;;;;;;;5.97;5.22;;;17.40;86.60;;;;;;4976302;28;20045;-88
2021/09/26 01:12:01;;;;;;;7.72;5.32;;;17.50;86.80;;;;;;4976360;28;20073;-88
2021/09/26 01:14:50;;;;;;;6.93;5.35;;;17.50;86.50;;;;;;4991214;28;20025;-88
2021/09/26 01:17:18;;;;;;;7.43;5.03;;;17.50;86.80;;;;;;4974352;28;20054;-88
2021/09/26 01:20:12;;;;;;;6.78;5.30;;;17.50;86.50;;;;;;4993895;28;20038;-88
2021/09/26 01:22:51;;;;;;;5.07;4.57;;;17.50;86.90;;;;;;4977387;28;20030;-88
2021/09/26 01:25:36;;;;;;;7.53;6.05;;;17.50;86.90;;;;;;4982618;28;20486;-88
2021/09/26 01:28:31;;;;;;;6.97;5.15;;;17.50;86.80;;;;;;4993862;28;20109;-88
2021/09/26 01:31:12;;;;;;;6.85;5.05;;;17.50;86.70;;;;;;4986470;28;20022;-88
2021/09/26 01:33:42;;;;;;;6.43;5.18;;;17.40;86.90;;;;;;4994529;28;20065;-88
2021/09/26 01:36:23;;;;;;;7.57;5.28;;;17.40;86.80;;;;;;4994984;28;20025;-88
2021/09/26 01:39:06;;;;;;;8.85;4.80;;;17.40;87.10;;;;;;4995050;28;20018;-88
2021/09/26 01:41:48;;;;;;;7.40;5.20;;;17.30;86.90;;;;;;5004388;28;20025;-88
2021/09/26 01:44:24;;;;;;;7.97;5.13;;;17.30;87.00;;;;;;4997395;28;20025;-87
2021/09/26 01:46:55;;;;;;;5.38;4.43;;;17.30;87.00;;;;;;4995594;28;20026;-88
2021/09/26 01:49:28;;;;;;;6.22;5.00;;;17.20;87.10;;;;;;5012922;28;20533;-88
2021/09/26 01:51:56;;;;;;;8.13;5.93;;;17.20;87.20;;;;;;4994941;28;20030;-88
2021/09/26 01:54:23;;;;;;;8.45;6.07;;;17.20;87.00;;;;;;4986296;28;20110;-88
2021/09/26 01:56:50;;;;;;;7.80;5.85;;;17.20;87.10;;;;;;4975276;28;20031;-89
2021/09/26 01:59:19;;;;;;;8.93;5.70;;;17.10;87.30;;;;;;4975618;28;20109;-87
2021/09/26 02:01:45;;;;;;;6.78;4.97;;;17.00;87.30;;;;;;4975169;28;20033;-88
2021/09/26 02:04:11;;;;;;;8.70;5.75;;;17.00;87.60;;;;;;4975455;28;20023;-89
2021/09/26 02:06:39;;;;;;;7.47;6.25;;;17.00;87.80;;;;;;4973864;28;20058;-88
2021/09/26 02:09:06;;;;;;;8.80;6.30;;;17.00;87.90;;;;;;4979158;28;20551;-88
2021/09/26 02:11:33;;;;;;;11.85;7.78;;;17.10;88.00;;;;;;4994528;28;20034;-88
2021/09/26 02:14:01;;;;;;;9.98;7.80;;;17.10;88.00;;;;;;4994928;28;20029;-89
2021/09/26 02:16:28;;;;;;;10.73;7.15;;;17.10;87.90;;;;;;5012716;28;20026;-88
2021/09/26 02:18:54;;;;;;;11.50;7.18;;;17.00;87.80;;;;;;5011812;28;20029;-88
2021/09/26 02:21:20;;;;;;;8.07;7.00;;;17.00;87.90;;;;;;4993591;28;20267;-87
2021/09/26 02:23:46;;;;;;;8.60;6.30;;;17.00;88.20;;;;;;4989537;28;20029;-88
2021/09/26 02:26:13;;;;;;;8.50;6.43;;;16.90;88.30;;;;;;4974764;28;20117;-88
2021/09/26 02:28:39;;;;;;;10.90;6.72;;;17.00;88.40;;;;;;4979722;28;20077;-88
2021/09/26 02:31:08;;;;;;;9.63;6.38;;;17.00;88.50;;;;;;5026804;28;20436;-88
2021/09/26 02:33:36;;;;;;;9.63;6.45;;;17.00;88.50;;;;;;5013294;28;20021;-88
2021/09/26 02:36:04;;;;;;;9.68;6.45;;;17.00;88.50;;;;;;5014006;28;20075;-88
2021/09/26 02:38:29;;;;;;;10.85;7.65;;;17.00;88.50;;;;;;5009097;28;20101;-88
2021/09/26 02:41:04;;;;;;;11.27;7.53;;;17.00;88.40;;;;;;4995066;28;20521;-88
2021/09/26 02:44:09;;;;;;;8.75;6.40;;;17.00;88.50;;;;;;5001898;28;20483;-88
2021/09/26 02:46:39;;;;;;;13.23;8.20;;;16.90;88.80;;;;;;4994187;28;20040;-88
2021/09/26 02:49:06;;;;;;;9.43;7.55;;;16.90;88.70;;;;;;4994198;28;20026;-89
2021/09/26 02:51:32;;;;;;;10.10;8.25;;;16.90;88.70;;;;;;5012399;28;20121;-88
2021/09/26 02:54:00;;;;;;;8.82;7.45;;;16.90;88.80;;;;;;4994134;28;20037;-88
2021/09/26 02:56:26;;;;;;;9.52;7.65;;;16.90;89.00;;;;;;5012005;28;20029;-88
2021/09/26 02:58:54;;;;;;;12.45;7.00;;;16.90;89.70;;;;;;4995009;28;20102;-88
2021/09/26 03:01:25;;;;;;;9.73;6.95;;;16.90;89.80;;;;;;4994464;28;20029;-89
2021/09/26 03:03:51;;;;;;;9.50;7.18;;;16.90;89.30;;;;;;4993774;28;20026;-88
2021/09/26 03:06:17;;;;;;;9.77;7.07;;;16.90;89.40;;;;;;4994443;28;20674;-88
2021/09/26 03:08:42;;;;;;;8.77;7.28;;;16.90;89.40;;;;;;4993857;28;20076;-88
2021/09/26 03:11:08;;;;;;;10.07;7.22;;;17.00;89.40;;;;;;5012632;28;20033;-89
2021/09/26 03:13:33;;;;;;;9.40;6.18;;;16.90;89.30;;;;;;4994637;28;20033;-88
2021/09/26 03:15:59;;;;;;;9.63;6.65;;;16.90;89.40;;;;;;4994261;28;20117;-88
2021/09/26 03:18:25;;;;;;;8.23;6.75;;;16.90;89.50;;;;;;5001723;28;20018;-87
2021/09/26 03:20:50;;;;;;;9.27;7.53;;;16.90;90.00;;;;;;5022454;28;20064;-87
2021/09/26 03:23:19;;;;;;;10.43;7.57;;;16.80;89.50;;;;;;4993633;28;20526;-88
2021/09/26 03:25:45;;;;;;;8.70;6.10;;;16.70;89.50;;;;;;5007540;28;20021;-88
2021/09/26 03:28:11;;;;;;;9.05;7.07;;;16.80;89.60;;;;;;4993560;28;20164;-88
2021/09/26 03:30:36;;;;;;;9.32;6.35;;;16.70;89.60;;;;;;5041775;28;20034;-88
2021/09/26 03:33:02;;;;;;;9.20;6.07;;;16.70;89.70;;;;;;5032074;28;20478;-88
2021/09/26 03:35:28;;;;;;;12.07;7.55;;;16.70;89.80;;;;;;4998177;28;20021;-89
2021/09/26 03:37:54;;;;;;;12.35;7.00;;;16.70;89.80;;;;;;4980786;28;20030;-88
2021/09/26 03:40:20;;;;;;;8.40;7.10;;;16.60;89.80;;;;;;4978614;28;20100;-88
2021/09/26 03:42:45;;;;;;;10.23;6.30;;;16.70;89.90;;;;;;5004419;28;20045;-90
2021/09/26 03:45:13;;;;;;;7.68;6.18;;;16.70;90.00;;;;;;4989991;28;20042;-89
2021/09/26 03:47:39;;;;;;;10.50;5.50;;;16.70;89.90;;;;;;4996232;28;20490;-88
2021/09/26 03:50:07;;;;;;;7.30;5.97;;;16.60;89.90;;;;;;4997036;28;20018;-88
2021/09/26 03:52:34;;;;;;;8.20;6.18;;;16.60;89.90;;;;;;4992552;28;20053;-88
2021/09/26 03:55:01;;;;;;;9.02;6.13;;;16.60;89.90;;;;;;4992566;28;20037;-89
2021/09/26 03:57:29;;;;;;;7.63;6.60;;;16.60;90.00;;;;;;5030109;28;20112;-89
2021/09/26 03:59:55;;;;;;;8.20;6.70;;;16.70;90.00;;;;;;5003371;28;20021;-89
2021/09/26 04:02:20;;;;;;;7.07;6.15;;;16.60;90.00;;;;;;4997046;28;20177;-88
2021/09/26 04:04:46;;;;;;;8.57;6.70;;;16.60;90.00;;;;;;5014440;28;20033;-88
2021/09/26 04:07:11;;;;;;;11.60;7.07;;;16.70;90.00;;;;;;4996706;28;20482;-88
2021/09/26 04:09:37;;;;;;;9.05;6.15;;;16.60;90.00;;;;;;4996583;28;20117;-88
2021/09/26 04:12:03;;;;;;;7.28;5.90;;;16.60;90.10;;;;;;5014446;28;20398;-88
2021/09/26 04:14:29;;;;;;;6.15;5.50;;;16.50;90.10;;;;;;4995895;28;20104;-87
2021/09/26 04:16:55;;;;;;;8.13;5.85;;;16.60;90.40;;;;;;4997210;28;20032;-88
2021/09/26 04:19:20;;;;;;;7.65;5.43;;;16.50;90.20;;;;;;4997383;28;20080;-87
2021/09/26 04:21:46;;;;;;;7.25;5.40;;;16.60;90.20;;;;;;5014303;28;20116;-88
2021/09/26 04:24:13;;;;;;;8.80;5.38;;;16.60;90.20;;;;;;4996578;28;20533;-88
2021/09/26 04:26:39;;;;;;;7.78;5.65;;;16.60;90.20;;;;;;4996644;28;20022;-88
2021/09/26 04:29:05;;;;;;;6.93;4.97;;;16.70;90.20;;;;;;4992487;28;20030;-89
2021/09/26 04:31:30;;;;;;;6.00;5.40;;;16.60;90.20;;;;;;5015113;28;20400;-88
2021/09/26 04:33:56;;;;;;;5.53;4.72;;;16.60;90.20;;;;;;5016165;28;20026;-89
2021/09/26 04:36:22;;;;;;;7.05;5.28;;;16.60;90.20;;;;;;5009338;28;20026;-88
2021/09/26 04:38:50;;;;;;;6.47;4.63;;;16.60;90.20;;;;;;5029010;28;20032;-88
2021/09/26 04:41:16;;;;;;;8.18;5.55;;;16.60;90.20;;;;;;5003539;28;20040;-88
2021/09/26 04:43:42;;;;;;;5.65;4.35;;;16.60;90.20;;;;;;5122295;22;20128;-90
2021/09/26 04:46:07;;;;;;;6.15;5.28;;;16.50;90.20;;;;;;4995627;28;20030;-91
2021/09/26 04:48:33;;;;;;;5.28;4.78;;;16.60;90.20;;;;;;4985713;28;20617;-90
2021/09/26 04:50:59;;;;;;;7.20;5.53;;;16.50;90.20;;;;;;4976323;28;20022;-90
2021/09/26 04:53:24;;;;;;;6.25;4.80;;;16.50;90.20;;;;;;4976413;28;20057;-90
2021/09/26 04:55:50;;;;;;;5.95;4.80;;;16.50;90.30;;;;;;4976574;28;20031;-91
2021/09/26 04:58:16;;;;;;;5.78;5.18;;;16.50;90.30;;;;;;4976531;28;20030;-91
2021/09/26 05:00:42;;;;;;;5.50;4.57;;;16.50;90.30;;;;;;4976803;28;20094;-91
2021/09/26 05:03:08;;;;;;;5.18;4.50;;;16.50;90.40;;;;;;4993243;28;20030;-90
2021/09/26 05:05:33;;;;;;;8.43;4.53;;;16.50;90.40;;;;;;4976544;28;20022;-91
2021/09/26 05:07:59;;;;;;;7.55;4.45;;;16.50;90.40;;;;;;4976167;28;20848;-90
2021/09/26 05:10:25;;;;;;;6.25;4.60;;;16.50;90.40;;;;;;4993413;28;20034;-91
2021/09/26 05:12:51;;;;;;;7.60;5.97;;;16.50;90.40;;;;;;4994113;28;20022;-91
2021/09/26 05:15:16;;;;;;;6.90;5.47;;;16.50;90.40;;;;;;4975807;28;20033;-91
2021/09/26 05:17:42;;;;;;;7.22;5.57;;;16.40;90.40;;;;;;4977798;28;20077;-90
2021/09/26 05:20:08;;;;;;;7.70;4.88;;;16.50;90.50;;;;;;4993563;28;20038;-90
2021/09/26 05:22:34;;;;;;;7.18;5.50;;;16.40;90.60;;;;;;4974831;28;20042;-91
2021/09/26 05:25:00;;;;;;;8.00;6.28;;;16.40;90.70;;;;;;4975745;28;20018;-90
2021/09/26 05:27:26;;;;;;;7.75;5.80;;;16.40;90.50;;;;;;4975055;28;20026;-91
2021/09/26 05:29:52;;;;;;;6.68;5.85;;;16.40;90.50;;;;;;4975245;28;20049;-91
2021/09/26 05:32:17;;;;;;;7.28;5.75;;;16.30;90.50;;;;;;4975784;28;20030;-90
2021/09/26 05:34:44;;;;;;;6.90;5.82;;;16.30;90.60;;;;;;4975142;28;20096;-90
2021/09/26 05:37:11;;;;;;;7.80;5.72;;;16.30;90.60;;;;;;4975272;28;20061;-91
2021/09/26 05:39:37;;;;;;;9.10;5.45;;;16.30;90.60;;;;;;4993021;28;20040;-91
2021/09/26 05:42:03;;;;;;;7.20;5.65;;;16.20;90.60;;;;;;4975499;28;20037;-91
2021/09/26 05:44:34;;;;;;;6.55;5.75;;;16.20;90.70;;;;;;4974626;28;20085;-91
2021/09/26 05:47:00;;;;;;;5.70;5.10;;;16.10;90.80;;;;;;4975306;28;20479;-90
2021/09/26 05:49:26;;;;;;;7.30;5.40;;;16.10;90.80;;;;;;4975357;28;20023;-91
2021/09/26 05:51:52;;;;;;;6.30;5.55;;;16.20;90.90;;;;;;4975664;28;20033;-90
2021/09/26 05:54:19;;;;;;;6.85;5.38;;;16.20;90.90;;;;;;4992217;28;20031;-90
2021/09/26 05:56:45;;;;;;;6.03;5.30;;;16.20;90.90;;;;;;4975013;28;20030;-91
2021/09/26 05:59:10;;;;;;;8.45;5.78;;;16.30;90.90;;;;;;4975410;28;20630;-90
2021/09/26 06:01:36;;;;;;;7.63;4.95;;;16.30;90.90;;;;;;4992586;28;20153;-91
2021/09/26 06:04:02;;;;;;;6.05;5.07;;;16.30;90.90;;;;;;4974909;28;20022;-90
2021/09/26 06:06:27;;;;;;;6.55;5.07;;;16.30;90.90;;;;;;4991504;28;20034;-91
2021/09/26 06:08:53;;;;;;;5.85;4.97;;;16.30;90.90;;;;;;4974719;28;20018;-91
2021/09/26 06:11:18;;;;;;;7.30;5.93;;;16.30;90.90;;;;;;4975136;28;20030;-90
2021/09/26 06:13:44;;;;;;;6.22;5.63;;;16.30;90.90;;;;;;4974588;28;20049;-91
2021/09/26 06:16:10;;;;;;;5.93;5.30;;;16.30;90.90;;;;;;4992396;28;20549;-91
2021/09/26 06:18:35;;;;;;;7.70;5.70;;;16.30;90.90;;;;;;4974826;28;20053;-91
2021/09/26 06:21:01;;;;;;;7.93;5.93;;;16.30;90.90;;;;;;4975253;28;20080;-90
2021/09/26 06:23:27;;;;;;;7.68;5.97;;;16.30;90.90;;;;;;4974647;28;20034;-91
2021/09/26 06:25:55;;;;;;;7.10;5.68;;;16.30;90.90;;;;;;4975701;28;20051;-90
2021/09/26 06:28:21;;;;;;;8.88;5.50;;;16.30;91.00;;;;;;4983155;28;20021;-91
2021/09/26 06:30:47;;;;;;;6.25;5.45;;;16.30;91.00;;;;;;4986578;28;20069;-90
2021/09/26 06:33:12;;;;;;;7.88;5.53;;;16.40;91.10;;;;;;4975282;28;20034;-90
2021/09/26 06:35:38;;;;;;;6.03;5.35;;;16.40;91.10;;;;;;4976960;28;20066;-91
2021/09/26 06:38:04;;;;;;;8.48;6.00;;;16.40;91.10;;;;;;4975998;28;20081;-91
2021/09/26 06:40:30;;;;;;;8.55;7.35;;;16.50;91.10;;;;;;4995904;28;20022;-91
2021/09/26 06:42:56;;;;;;;12.95;7.50;;;16.50;91.10;;;;;;5012171;28;20024;-91
2021/09/26 06:45:23;;;;;;;10.65;7.93;;;16.60;91.10;;;;;;4994990;28;20065;-91
2021/09/26 06:47:49;;;;;;;9.70;7.28;;;16.60;91.10;;;;;;4989489;28;20015;-91
2021/09/26 06:50:14;;;;;;;8.57;6.38;;;16.70;91.20;;;;;;4974911;28;20479;-90
2021/09/26 06:52:40;;;;;;;8.82;6.43;;;16.80;91.30;;;;;;4976239;28;20022;-91
2021/09/26 06:55:07;;;;;;;9.07;7.22;;;16.90;91.30;;;;;;4996223;28;20062;-91
2021/09/26 06:57:32;;;;;;;10.27;6.50;;;16.90;91.30;;;;;;4978620;28;20410;-91
2021/09/26 06:59:58;;;;;;;6.07;4.97;;;17.00;91.30;;;;;;4978015;28;20113;-91
2021/09/26 07:02:24;;;;;;;6.20;4.90;;;17.20;91.30;;;;;;4976751;28;20054;-91
2021/09/26 07:04:50;;;;;;;6.38;4.78;;;17.20;91.20;;;;;;4977195;28;20034;-92
2021/09/26 07:07:17;;;;;;;5.03;4.50;;;17.30;91.20;;;;;;4977734;28;20026;-90
2021/09/26 07:09:43;;;;;;;7.03;5.00;;;17.40;91.20;;;;;;4977725;28;20165;-91
2021/09/26 07:12:09;;;;;;;7.90;5.10;;;17.50;91.20;;;;;;4977596;28;20106;-91
2021/09/26 07:14:35;;;;;;;5.85;4.72;;;17.70;91.20;;;;;;4977688;28;20084;-91
2021/09/26 07:17:01;;;;;;;6.75;4.82;;;17.80;91.10;;;;;;4977888;28;20031;-90
2021/09/26 07:19:27;;;;;;;7.15;5.10;;;18.00;91.10;;;;;;4977969;28;20030;-90
2021/09/26 07:21:52;;;;;;;8.35;5.00;;;18.10;91.00;;;;;;4994205;28;20037;-90
2021/09/26 07:24:18;;;;;;;6.43;4.75;;;18.30;90.90;;;;;;4994730;28;20407;-89
2021/09/26 07:26:44;;;;;;;6.72;4.75;;;18.50;90.80;;;;;;4977171;28;20033;-90
2021/09/26 07:29:10;;;;;;;7.38;5.18;;;18.60;90.70;;;;;;4976462;28;20026;-90
2021/09/26 07:31:35;;;;;;;9.27;5.20;;;18.80;90.60;;;;;;4976527;28;20426;-90
2021/09/26 07:34:04;;;;;;;10.88;5.82;;;19.00;90.40;;;;;;4977768;28;20030;-90
2021/09/26 07:36:30;;;;;;;6.80;5.25;;;19.30;90.10;;;;;;4976416;28;20117;-90
2021/09/26 07:38:56;;;;;;;6.03;5.15;;;19.50;89.40;;;;;;4977058;28;20126;-90
2021/09/26 07:41:22;;;;;;;7.22;5.07;;;19.80;88.70;;;;;;4977532;28;20027;-90
2021/09/26 07:43:47;;;;;;;6.57;4.90;;;20.10;88.10;;;;;;4976653;28;20102;-90
2021/09/26 07:46:14;;;;;;;5.90;5.07;;;20.60;87.50;;;;;;4977047;28;20069;-90
2021/09/26 07:48:40;;;;;;;7.28;5.43;;;21.00;86.60;;;;;;4994801;28;20433;-90
2021/09/26 07:51:06;;;;;;;7.50;5.32;;;21.40;85.40;;;;;;4977286;28;20103;-91
2021/09/26 07:53:33;;;;;;;5.88;4.10;;;21.70;84.40;;;;;;4998837;28;20022;-90
2021/09/26 07:55:59;;;;;;;7.30;4.43;;;22.00;83.50;;;;;;5013716;28;20030;-91
2021/09/26 07:58:26;;;;;;;8.00;4.25;;;22.10;82.90;;;;;;4997386;28;20090;-91
2021/09/26 08:00:55;;;;;;;4.57;3.92;;;22.10;83.00;;;;;;4987594;28;20124;-90
2021/09/26 08:03:21;;;;;;;4.50;3.53;;;22.00;83.00;;;;;;4976529;28;20110;-90
2021/09/26 08:05:47;;;;;;;10.65;4.28;;;22.00;83.20;;;;;;4976352;28;20046;-90
2021/09/26 08:08:12;;;;;;;5.57;4.20;;;21.90;83.20;;;;;;4977158;28;20490;-90
2021/09/26 08:10:38;;;;;;;6.03;4.35;;;21.90;83.50;;;;;;4976994;28;20023;-90
2021/09/26 08:13:04;;;;;;;9.43;4.28;;;21.90;83.60;;;;;;4993854;28;20363;-90
2021/09/26 08:15:33;;;;;;;6.63;4.35;;;22.00;83.70;;;;;;4976205;28;20038;-90
2021/09/26 08:17:58;;;;;;;5.50;3.88;;;21.90;83.60;;;;;;4977082;28;20033;-90
2021/09/26 08:20:25;;;;;;;9.13;4.70;;;22.00;83.90;;;;;;4975948;28;20034;-90
2021/09/26 08:22:52;;;;;;;7.40;4.68;;;22.00;83.60;;;;;;4976059;28;20026;-90
2021/09/26 08:25:18;;;;;;;10.40;4.50;;;22.00;83.30;;;;;;4976871;28;20031;-90
2021/09/26 08:27:44;;;;;;;6.53;4.28;;;21.90;83.60;;;;;;4978929;28;20434;-90
2021/09/26 08:30:11;;;;;;;6.35;3.90;;;21.90;83.70;;;;;;5008261;28;20109;-90
2021/09/26 08:32:38;;;;;;;8.10;4.05;;;21.90;83.30;;;;;;4993445;28;20034;-90
2021/09/26 08:35:09;;;;;;;5.53;3.55;;;21.90;83.20;;;;;;4979510;28;20037;-90
2021/09/26 08:37:35;;;;;;;8.63;4.10;;;22.00;83.30;;;;;;4993870;28;20080;-89
2021/09/26 08:40:01;;;;;;;6.95;3.72;;;21.90;83.30;;;;;;4994197;28;20026;-90
2021/09/26 08:42:27;;;;;;;7.47;4.05;;;22.00;83.30;;;;;;4976028;28;20034;-89
2021/09/26 08:44:53;;;;;;;6.60;4.10;;;22.00;83.00;;;;;;4975676;28;20030;-89
2021/09/26 08:47:19;;;;;;;7.65;3.85;;;22.00;83.10;;;;;;4976179;28;20347;-90
2021/09/26 08:49:45;;;;;;;6.53;3.88;;;22.00;83.10;;;;;;4975814;28;20024;-90
2021/09/26 08:52:11;;;;;;;6.47;4.15;;;22.00;83.40;;;;;;4976065;28;20026;-90
2021/09/26 08:54:39;;;;;;;6.07;4.40;;;22.00;82.70;;;;;;4975437;28;20085;-90
2021/09/26 08:57:05;;;;;;;6.63;4.07;;;22.00;82.70;;;;;;4993910;28;20038;-90
2021/09/26 08:59:31;;;;;;;4.18;3.65;;;21.90;83.00;;;;;;4976519;28;20034;-88
2021/09/26 09:01:57;;;;;;;6.88;4.05;;;21.90;83.10;;;;;;4975799;28;20022;-90
2021/09/26 09:04:39;;;;;;;7.00;4.28;;;21.90;83.20;;;;;;4976902;28;20080;-90
2021/09/26 09:07:07;;;;;;;9.48;4.22;;;22.00;83.10;;;;;;4975900;28;20482;-90
2021/09/26 09:09:57;;;;;;;7.72;4.00;;;22.00;83.00;;;;;;4975441;28;20026;-90
2021/09/26 09:12:28;;;;;;;8.65;4.22;;;22.00;83.00;;;;;;4976356;28;20516;-90
2021/09/26 09:15:02;;;;;;;6.60;4.22;;;22.10;83.00;;;;;;4992723;28;20038;-89
2021/09/26 09:17:29;;;;;;;8.32;4.28;;;22.10;83.00;;;;;;4975710;28;20026;-89
2021/09/26 09:20:14;;;;;;;4.97;4.00;;;22.10;83.00;;;;;;4992545;28;20022;-89
2021/09/26 09:22:41;;;;;;;8.90;4.65;;;22.10;83.00;;;;;;4992853;28;20023;-90
2021/09/26 09:25:08;;;;;;;7.65;4.18;;;22.10;83.00;;;;;;4976035;28;20510;-90
2021/09/26 09:27:34;;;;;;;9.02;4.40;;;22.10;83.20;;;;;;4974447;28;20133;-90
2021/09/26 09:30:03;;;;;;;11.45;4.43;;;22.20;83.50;;;;;;4972478;28;20105;-90
2021/09/26 09:32:29;;;;;;;11.07;4.10;;;22.30;83.30;;;;;;4977245;28;20061;-90
2021/09/26 09:34:54;;;;;;;12.45;4.20;;;22.40;83.30;;;;;;4980588;28;20030;-90
2021/09/26 09:37:27;;;;;;;11.30;3.83;;;22.50;83.30;;;;;;4974905;28;20041;-89
2021/09/26 09:40:15;;;;;;;6.38;3.58;;;22.70;83.20;;;;;;4975011;28;20031;-90
2021/09/26 09:42:51;;;;;;;14.32;3.70;;;22.80;82.80;;;;;;4990775;28;20137;-90
2021/09/26 09:45:18;;;;;;;9.60;3.72;;;22.90;82.00;;;;;;4974771;28;20030;-90
2021/09/26 09:48:03;;;;;;;9.73;3.50;;;22.90;81.40;;;;;;4974478;28;20049;-90
2021/09/26 09:50:40;;;;;;;8.48;3.38;;;22.90;80.90;;;;;;4992227;28;20022;-90
2021/09/26 09:53:08;;;;;;;5.72;3.10;;;23.00;80.90;;;;;;4973939;28;20026;-90
2021/09/26 09:55:36;;;;;;;6.00;3.40;;;23.00;80.80;;;;;;4974912;28;20566;-89
2021/09/26 09:58:16;;;;;;;6.88;3.38;;;23.00;80.50;;;;;;4991639;28;20033;-90
2021/09/26 10:01:01;;;;;;;7.25;3.10;;;22.80;80.10;;;;;;4992263;28;20053;-90
2021/09/26 10:03:36;;;;;;;7.57;3.20;;;22.80;80.10;;;;;;4991104;28;20391;-89
2021/09/26 10:06:18;;;;;;;7.50;4.30;;;22.70;80.30;;;;;;4955054;28;20050;-89
2021/09/26 10:08:44;;;;;;;11.65;4.10;;;22.70;80.60;;;;;;4955599;28;20086;-90
2021/09/26 10:11:10;;;;;;;6.68;3.55;;;22.60;80.70;;;;;;4955492;28;20023;-90
2021/09/26 10:13:36;;;;;;;7.38;3.42;;;22.60;80.70;;;;;;4965598;28;20034;-90
2021/09/26 10:16:07;;;;;;;8.73;3.67;;;22.60;80.70;;;;;;4974431;28;20033;-90
2021/09/26 10:18:34;;;;;;;10.18;3.97;;;22.50;80.70;;;;;;4975013;28;20041;-89
2021/09/26 10:21:01;;;;;;;10.20;3.70;;;22.40;80.80;;;;;;4974580;28;20395;-90
2021/09/26 10:23:27;;;;;;;9.00;3.95;;;22.40;80.80;;;;;;4991724;28;20093;-90
2021/09/26 10:25:57;;;;;;;7.55;3.53;;;22.30;81.00;;;;;;4974287;28;20026;-89
2021/09/26 10:28:27;;;;;;;5.65;3.28;;;22.30;81.20;;;;;;4974688;28;20022;-89
2021/09/26 10:30:54;;;;;;;6.97;3.63;;;22.20;81.40;;;;;;4989004;28;20018;-90
2021/09/26 10:33:21;;;;;;;6.05;3.47;;;22.30;81.50;;;;;;4974311;28;20026;-89
2021/09/26 10:35:47;;;;;;;19.45;5.57;;;22.20;81.40;;;;;;4992389;28;20038;-89
2021/09/26 10:38:13;;;;;;;21.95;6.40;;;22.30;81.50;;;;;;4992371;28;20022;-90
2021/09/26 10:40:39;;;;;;;7.13;4.10;;;22.30;81.90;;;;;;4974385;28;20061;-89
2021/09/26 10:43:27;;;;;;;8.18;3.88;;;22.30;81.20;;;;;;4973594;28;20033;-90
2021/09/26 10:46:13;;;;;;;10.07;3.80;;;22.30;81.20;;;;;;4974797;28;20026;-90
2021/09/26 10:49:00;;;;;;;7.80;3.70;;;22.20;81.20;;;;;;4974397;28;20029;-89
2021/09/26 10:51:56;;;;;;;7.05;3.78;;;22.20;81.40;;;;;;4974200;28;20462;-90
2021/09/26 10:54:24;;;;;;;7.28;3.70;;;22.20;81.20;;;;;;4974108;28;20037;-90
2021/09/26 10:56:51;;;;;;;10.30;3.65;;;22.10;81.40;;;;;;4973999;28;20015;-90
2021/09/26 10:59:18;;;;;;;8.93;3.65;;;22.10;81.70;;;;;;4974500;28;20048;-90
2021/09/26 11:01:44;;;;;;;8.48;3.42;;;22.10;81.60;;;;;;4974060;28;20030;-90
2021/09/26 11:04:14;;;;;;;9.20;4.10;;;22.00;81.60;;;;;;4973374;28;20600;-90
2021/09/26 11:06:39;;;;;;;7.05;3.90;;;22.00;81.80;;;;;;4974454;28;20037;-90
2021/09/26 11:09:09;;;;;;;9.15;4.28;;;22.00;81.80;;;;;;4974058;28;20431;-91
2021/09/26 11:11:49;;;;;;;6.53;3.50;;;22.00;81.60;;;;;;4973841;28;20026;-90
2021/09/26 11:14:16;;;;;;;4.97;3.65;;;22.00;82.20;;;;;;4991332;28;20170;-90
2021/09/26 11:16:55;;;;;;;9.00;3.97;;;22.00;81.50;;;;;;4973954;28;20414;-90
2021/09/26 11:19:22;;;;;;;10.57;4.65;;;21.90;81.40;;;;;;4983859;28;20022;-90
2021/09/26 11:21:57;;;;;;;5.60;4.15;;;21.90;81.30;;;;;;5014148;28;20018;-90
2021/09/26 11:24:23;;;;;;;7.30;4.68;;;21.80;81.10;;;;;;4996515;28;20078;-89
2021/09/26 11:27:00;;;;;;;7.53;5.03;;;21.80;81.10;;;;;;5013714;28;20018;-90
2021/09/26 11:29:26;;;;;;;11.50;5.07;;;21.70;80.80;;;;;;4977102;28;20121;-90
2021/09/26 11:31:52;;;;;;;7.70;4.60;;;21.70;80.90;;;;;;4980363;28;20027;-90
2021/09/26 11:34:44;;;;;;;5.88;4.60;;;21.60;81.00;;;;;;4973853;28;20026;-90
2021/09/26 11:37:12;;;;;;;7.75;5.43;;;21.60;81.60;;;;;;4973687;28;20077;-90
2021/09/26 11:39:40;;;;;;;11.60;5.82;;;21.50;81.80;;;;;;4977028;28;20096;-90
2021/09/26 11:42:52;;;;;;;9.23;4.72;;;21.50;82.00;;;;;;4977867;28;20030;-89
2021/09/26 11:45:20;;;;;;;6.45;4.40;;;21.50;82.50;;;;;;4934899;28;20056;-90
2021/09/26 11:48:06;;;;;;;9.43;4.63;;;21.50;82.60;;;;;;4957727;28;20108;-90
2021/09/26 11:50:34;;;;;;;9.65;4.97;;;21.50;82.80;;;;;;4968408;28;20120;-89
2021/09/26 11:53:00;;;;;;;6.50;4.80;;;21.50;82.70;;;;;;4977016;28;20363;-90
2021/09/26 11:55:36;;;;;;;6.88;5.30;;;21.50;82.80;;;;;;4977258;28;20053;-89
2021/09/26 11:58:04;;;;;;;7.40;5.20;;;21.50;82.50;;;;;;4976580;28;20042;-89
2021/09/26 12:00:37;;;;;;;9.13;6.00;;;21.50;82.40;;;;;;4976657;28;20104;-90
2021/09/26 12:03:28;;;;;;;7.13;5.63;;;21.40;82.40;;;;;;4976626;28;20041;-89
2021/09/26 12:05:55;;;;;;;9.25;5.78;;;21.40;82.20;;;;;;4957363;28;20023;-90
2021/09/26 12:08:23;;;;;;;10.43;5.57;;;21.40;82.20;;;;;;4963481;28;20132;-89
2021/09/26 12:10:58;;;;;;;10.07;5.80;;;21.40;82.20;;;;;;4977352;28;20084;-90
2021/09/26 12:13:24;;;;;;;8.77;6.35;;;21.40;82.20;;;;;;4977229;28;20031;-90
2021/09/26 12:15:50;;;;;;;9.18;6.35;;;21.40;82.40;;;;;;4977584;28;20581;-89
2021/09/26 12:18:24;;;;;;;7.85;5.90;;;21.40;82.40;;;;;;4977670;28;20038;-90
2021/09/26 12:21:03;;;;;;;8.80;6.10;;;21.40;82.50;;;;;;4977604;28;20061;-90
2021/09/26 12:23:43;;;;;;;8.48;6.13;;;21.40;82.40;;;;;;4996088;28;20038;-90
2021/09/26 12:26:09;;;;;;;9.75;7.00;;;21.40;82.50;;;;;;4999079;28;20037;-90
2021/09/26 12:28:37;;;;;;;11.05;6.28;;;21.40;82.30;;;;;;4998661;28;20022;-90
2021/09/26 12:31:03;;;;;;;6.65;5.93;;;21.40;82.10;;;;;;4988218;28;20529;-91
2021/09/26 12:33:44;;;;;;;6.15;5.55;;;21.40;82.10;;;;;;4976342;28;20026;-90
2021/09/26 12:36:16;;;;;;;6.93;5.67;;;21.30;82.00;;;;;;4976198;28;20295;-90
2021/09/26 12:38:47;;;;;;;8.48;5.53;;;21.30;82.10;;;;;;4975453;28;20034;-89
2021/09/26 12:41:19;;;;;;;7.80;6.28;;;21.30;82.10;;;;;;4993875;28;20118;-90
2021/09/26 12:43:58;;;;;;;7.85;6.05;;;21.20;82.00;;;;;;4976311;28;20046;-89
2021/09/26 12:46:27;;;;;;;6.68;5.03;;;21.20;82.00;;;;;;4976205;28;20472;-90
2021/09/26 12:48:53;;;;;;;10.05;5.53;;;21.20;82.00;;;;;;4976657;28;20026;-89
2021/09/26 12:51:47;;;;;;;6.32;5.50;;;21.20;82.10;;;;;;4975341;28;20067;-89
2021/09/26 12:54:14;;;;;;;9.13;5.78;;;21.20;82.30;;;;;;4989858;28;20451;-90